Latest Coastal Weather Observations for Stenhouse Bay

IDS60701

Issued at 3:01 pm CDT Sunday 22 October 2017 (issued every 10 minutes, with the page automatically refreshed every 10 minutes)

About coastal observations | Map of coastal stations | Coastal observations for SA | Marine services | Other Formats
Station Details ID: 022049 Name: STENHOUSE BAY Lat: -35.28 Lon: 136.94 Height: 42.0 m
Data from the previous 72 hours. | See also: Recent months at Stenhouse Bay
Date/Time
CDT
Temp
°C
Wind Pressure Rain since
9am
mm
Weather Cloud Vis
km
Sea
Height
m
Swell
Dir  Spd
kts
Gust
kts
hPa Trend Height
m
Period
s
Dir
22/03:00pm 15.6 S 3 4 1022.7 - 0.0 - - - - - - -
22/02:30pm 15.5 SW 5 7 1022.9 - 0.0 - - - - - - -
22/02:00pm 15.1 S 5 7 1023.1 - 0.0 - - - - - - -
22/01:30pm 15.4 SSW 6 9 1023.2 - 0.0 - - - - - - -
22/01:00pm 15.8 SSW 5 7 1023.4 - 0.0 - - - - - - -
22/12:30pm 15.9 SSW 5 8 1023.7 - 0.0 - - - - - - -
22/12:00pm 16.4 SSW 6 10 1023.9 - 0.0 - - - - - - -
22/11:30am 15.2 SSW 6 10 1024.2 - 0.0 - - - - - - -
22/11:00am 14.8 SSW 7 9 1024.2 - 0.0 - - - - - - -
22/10:30am 14.4 S 9 11 1024.2 - 0.0 - - - - - - -
22/10:00am 14.5 S 10 14 1024.3 - 0.0 - - - - - - -
22/09:30am 13.9 S 12 15 1024.3 - 0.0 - - - - - - -
22/09:00am 13.6 S 9 13 1024.2 - 0.0 - - - - - - -
22/08:30am 13.2 SSW 10 14 1024.1 - 0.0 - - - - - - -
22/08:00am 12.9 S 7 10 1024.1 - 0.0 - - - - - - -
22/07:30am 12.5 SSE 13 16 1023.9 - 0.0 - - - - - - -
22/07:00am 12.7 S 11 15 1023.7 - 0.0 - - - - - - -
22/06:30am 12.6 S 12 16 1023.7 - 0.0 - - - - - - -
22/06:00am 12.7 SSW 8 12 1023.7 - 0.0 - - - - - - -
22/05:30am 12.6 S 10 13 1023.6 - 0.0 - - - - - - -
22/05:00am 12.6 S 11 15 1023.7 - 0.0 - - - - - - -
22/04:30am 12.5 SSE 12 15 1023.8 - 0.0 - - - - - - -
22/04:00am 12.7 S 13 17 1023.9 - 0.0 - - - - - - -
22/03:30am 12.5 SSE 12 18 1024.1 - 0.0 - - - - - - -
22/03:00am 12.5 SSE 13 17 1024.4 - 0.0 - - - - - - -
22/02:30am 12.5 SSE 12 17 1024.6 - 0.0 - - - - - - -
22/02:00am 12.5 SSE 15 17 1024.9 - 0.0 - - - - - - -
22/01:30am 12.7 S 12 17 1025.2 - 0.0 - - - - - - -
22/01:00am 12.8 S 12 19 1025.6 - 0.0 - - - - - - -
22/12:30am 12.6 S 13 17 1025.8 - 0.0 - - - - - - -
22/12:00am 12.5 S 12 16 1026.2 - 0.0 - - - - - - -
 
Date/Time
CDT
Temp
°C
Wind Pressure Rain since
9am
mm
Weather Cloud Vis
km
Sea
Height
m
Swell
Dir  Spd
kts
Gust
kts
hPa Trend Height
m
Period
s
Dir
21/11:30pm 12.9 S 13 19 1026.3 - 0.0 - - - - - - -
21/11:00pm 12.8 S 14 18 1026.5 - 0.0 - - - - - - -
21/10:30pm 12.8 S 14 19 1026.8 - 0.0 - - - - - - -
21/10:00pm 12.9 SSE 14 19 1027.0 - 0.0 - - - - - - -
21/09:30pm 12.7 S 15 19 1027.2 - 0.0 - - - - - - -
21/09:00pm 13.0 S 15 19 1027.2 - 0.0 - - - - - - -
21/08:30pm 13.0 SSE 15 21 1027.0 - 0.0 - - - - - - -
21/08:00pm 13.3 S 14 19 1026.9 - 0.0 - - - - - - -
21/07:30pm 13.3 S 13 18 1027.0 - 0.0 - - - - - - -
21/07:00pm 13.7 S 12 17 1026.8 - 0.0 - - - - - - -
21/06:30pm 14.0 S 14 19 1026.8 - 0.0 - - - - - - -
21/06:00pm 14.4 SSW 12 19 1026.9 - 0.0 - - - - - - -
21/05:30pm 14.8 SSW 14 20 1027.0 - 0.0 - - - - - - -
21/05:00pm 15.1 SSW 13 21 1026.9 - 0.0 - - - - - - -
21/04:30pm 15.2 SW 14 20 1027.1 - 0.0 - - - - - - -
21/04:00pm 15.6 SW 14 19 1027.3 - 0.0 - - - - - - -
21/03:30pm 16.3 SW 12 19 1027.7 - 0.0 - - - - - - -
21/03:00pm 16.5 SW 11 15 1028.1 - 0.0 - - - - - - -
21/02:30pm 16.3 SSW 8 10 1028.4 - 0.0 - - - - - - -
21/02:00pm 16.3 SSW 7 11 1028.7 - 0.0 - - - - - - -
21/01:30pm 16.1 SSW 5 7 1029.0 - 0.0 - - - - - - -
21/01:00pm 15.4 SSW 5 7 1029.3 - 0.0 - - - - - - -
21/12:30pm 15.5 S 7 8 1029.8 - 0.0 - - - - - - -
21/12:00pm 15.1 S 7 10 1030.2 - 0.0 - - - - - - -
21/11:30am 14.8 S 6 9 1030.4 - 0.0 - - - - - - -
21/11:00am 14.7 SSE 8 12 1030.4 - 0.0 - - - - - - -
21/10:30am 14.5 SSE 8 12 1030.7 - 0.0 - - - - - - -
21/10:00am 13.6 SSE 10 13 1030.7 - 0.0 - - - - - - -
21/09:30am 13.5 SSE 8 11 1030.6 - 0.0 - - - - - - -
21/09:00am 13.1 SSE 9 13 1030.6 - 0.0 - - - - - - -
21/08:30am 12.5 SSE 11 16 1030.8 - 0.0 - - - - - - -
21/08:00am 12.2 SSE 11 15 1030.6 - 0.0 - - - - - - -
21/07:30am 12.0 SSE 11 16 1030.6 - 0.0 - - - - - - -
21/07:00am 12.0 SSE 11 14 1030.4 - 0.0 - - - - - - -
21/06:30am 12.1 SSE 10 13 1030.2 - 0.0 - - - - - - -
21/06:00am 11.9 SSE 12 16 1029.8 - 0.0 - - - - - - -
21/05:30am 12.0 SE 7 13 1029.9 - 0.0 - - - - - - -
21/05:00am 12.3 SSE 9 13 1029.9 - 0.0 - - - - - - -
21/04:30am 12.0 SE 9 12 1030.2 - 0.0 - - - - - - -
21/04:00am 12.0 SE 9 13 1030.3 - 0.0 - - - - - - -
21/03:30am 11.9 SSE 10 15 1030.4 - 0.0 - - - - - - -
21/03:00am 12.0 SE 10 15 1030.6 - 0.0 - - - - - - -
21/02:30am 12.0 SE 11 15 1030.7 - 0.0 - - - - - - -
21/02:00am 12.3 SE 12 17 1030.9 - 0.0 - - - - - - -
21/01:30am 12.2 SE 12 17 1031.3 - 0.0 - - - - - - -
21/01:00am 12.1 SE 11 15 1031.6 - 0.0 - - - - - - -
21/12:30am 12.2 SE 12 18 1031.7 - 0.0 - - - - - - -
21/12:00am 12.0 SE 13 19 1031.9 - 0.0 - - - - - - -
 
Date/Time
CDT
Temp
°C
Wind Pressure Rain since
9am
mm
Weather Cloud Vis
km
Sea
Height
m
Swell
Dir  Spd
kts
Gust
kts
hPa Trend Height
m
Period
s
Dir
20/11:30pm 12.3 SE 13 18 1032.2 - 0.0 - - - - - - -
20/11:00pm 12.3 SE 13 18 1032.3 - 0.0 - - - - - - -
20/10:30pm 12.4 SSE 15 19 1032.5 - 0.0 - - - - - - -
20/10:00pm 12.5 SE 13 18 1032.5 - 0.0 - - - - - - -
20/09:30pm 12.7 SSE 15 19 1032.4 - 0.0 - - - - - - -
20/09:00pm 12.8 SSE 16 20 1032.3 - 0.0 - - - - - - -
20/08:30pm 13.1 SSE 14 19 1032.1 - 0.0 - - - - - - -
20/08:00pm 13.3 SSE 17 21 1031.8 - 0.0 - - - - - - -
20/07:30pm 13.7 SSE 17 21 1031.6 - 0.0 - - - - - - -
20/07:00pm 14.2 SSE 18 22 1031.0 - 0.0 - - - - - - -
20/06:30pm 14.8 SSE 16 21 1030.8 - 0.0 - - - - - - -
20/06:00pm 15.7 SSE 15 19 1030.6 - 0.0 - - - - - - -
20/05:30pm 16.3 SSE 15 19 1030.4 - 0.0 - - - - - - -
20/05:00pm 16.4 SSE 16 19 1030.5 - 0.0 - - - - - - -
20/04:30pm 17.0 SSE 15 17 1030.3 - 0.0 - - - - - - -
20/04:00pm 17.7 SSW 8 11 1030.3 - 0.0 - - - - - - -
20/03:30pm 17.4 SSW 7 10 1030.7 - 0.0 - - - - - - -
20/03:00pm 17.2 SSW 7 10 1031.0 - 0.0 - - - - - - -
20/02:30pm 17.8 S 6 9 1031.2 - 0.0 - - - - - - -
20/02:00pm 17.9 S 7 9 1031.4 - 0.0 - - - - - - -
20/01:30pm 17.7 S 7 11 1031.6 - 0.0 - - - - - - -
20/01:00pm 17.0 S 8 10 1031.7 - 0.0 - - - - - - -
20/12:30pm 16.4 SSE 7 10 1032.1 - 0.0 - - - - - - -
20/12:00pm 16.7 SSE 7 11 1032.3 - 0.0 - - - - - - -
20/11:30am 15.5 SSE 8 11 1032.5 - 0.0 - - - - - - -
20/11:00am 15.4 SE 7 10 1032.7 - 0.0 - - - - - - -
20/10:30am 15.2 SE 8 11 1032.6 - 0.0 - - - - - - -
20/10:00am 15.0 SSE 11 15 1032.5 - 0.0 - - - - - - -
20/09:30am 13.9 SE 10 14 1032.3 - 0.0 - - - - - - -
20/09:00am 13.8 SSE 13 17 1031.9 - 0.0 - - - - - - -
20/08:30am 13.3 SSE 13 17 1031.5 - 0.0 - - - - - - -
20/08:00am 13.3 SSE 13 18 1031.1 - 0.0 - - - - - - -
20/07:30am 12.6 SSE 11 14 1030.8 - 0.0 - - - - - - -
20/07:00am 12.4 SSE 12 15 1030.4 - 0.0 - - - - - - -
20/06:30am 12.5 SSE 15 19 1030.1 - 0.0 - - - - - - -
20/06:00am 12.7 SSE 14 21 1029.8 - 0.0 - - - - - - -
20/05:30am 12.7 S 16 20 1029.4 - 0.0 - - - - - - -
20/05:00am 12.8 SSE 17 22 1028.9 - 0.0 - - - - - - -
20/04:30am 12.6 S 17 21 1028.8 - 0.0 - - - - - - -
20/04:00am 12.7 S 17 21 1028.6 - 0.0 - - - - - - -
20/03:30am 12.8 S 17 21 1028.4 - 0.0 - - - - - - -
20/03:00am 13.1 S 16 21 1028.4 - 0.0 - - - - - - -
20/02:30am 13.1 S 16 21 1028.4 - 0.0 - - - - - - -
20/02:00am 13.1 S 16 20 1028.3 - 0.0 - - - - - - -
20/01:30am 13.2 S 14 18 1028.5 - 0.0 - - - - - - -
20/01:00am 13.5 SSW 14 20 1028.5 - 0.0 - - - - - - -
20/12:30am 13.7 S 14 21 1028.5 - 0.0 - - - - - - -
20/12:00am 13.9 SSW 14 19 1028.4 - 0.0 - - - - - - -
 
Date/Time
CDT
Temp
°C
Wind Pressure Rain since
9am
mm
Weather Cloud Vis
km
Sea
Height
m
Swell
Dir  Spd
kts
Gust
kts
hPa Trend Height
m
Period
s
Dir
19/11:30pm 14.2 S 14 20 1028.3 - 0.0 - - - - - - -
19/11:00pm 14.2 SSW 10 18 1028.2 - 0.0 - - - - - - -
19/10:30pm 14.0 SSW 10 16 1028.1 - 0.0 - - - - - - -
19/10:00pm 14.0 S 11 16 1028.1 - 0.0 - - - - - - -
19/09:30pm 14.2 SSW 15 19 1027.8 - 0.0 - - - - - - -
19/09:00pm 14.1 SSW 14 21 1027.4 - 0.0 - - - - - - -
19/08:30pm 14.4 SSW 15 20 1027.0 - 0.0 - - - - - - -
19/08:00pm 14.3 SSW 13 20 1026.5 - 0.0 - - - - - - -
19/07:30pm 14.6 SW 13 18 1026.1 - 0.0 - - - - - - -
19/07:00pm 14.8 SW 12 16 1025.7 - 0.0 - - - - - - -
19/06:30pm 15.5 SW 14 19 1025.4 - 0.0 - - - - - - -
19/06:00pm 15.2 SW 13 20 1025.1 - 0.0 - - - - - - -
19/05:30pm 16.7 SW 13 18 1024.7 - 0.0 - - - - - - -
19/05:00pm 16.6 SW 14 19 1024.4 - 0.0 - - - - - - -
19/04:30pm 17.2 SW 13 17 1024.3 - 0.0 - - - - - - -
19/04:00pm 17.3 SW 14 18 1024.0 - 0.0 - - - - - - -
19/03:30pm 17.1 SW 17 23 1023.8 - 0.0 - - - - - - -

Other Formats:

Comma delimited format used in spreadsheet applications
http://www.bom.gov.au/fwo/IDS60701/IDS60701.95806.axf

JavaScript Object Notation format (JSON) in row-major order
http://www.bom.gov.au/fwo/IDS60701/IDS60701.95806.json